createdAt,value
2023-01-30T00:00:55.807Z,79.00
2023-01-30T00:03:22.933Z,79.10
2023-01-30T00:05:49.601Z,79.10
2023-01-30T00:08:16.782Z,79.10
2023-01-30T00:10:43.733Z,79.00
2023-01-30T00:13:13.845Z,79.20
2023-01-30T00:15:40.932Z,79.10
2023-01-30T00:18:07.780Z,79.20
2023-01-30T00:20:34.483Z,79.20
2023-01-30T00:23:01.992Z,79.20
2023-01-30T00:25:33.544Z,79.20
2023-01-30T00:28:02.559Z,79.20
2023-01-30T00:30:29.665Z,79.10
2023-01-30T00:32:56.932Z,79.10
2023-01-30T00:35:28.393Z,79.70
2023-01-30T00:37:58.909Z,79.60
2023-01-30T00:40:26.689Z,79.30
2023-01-30T00:46:00.389Z,79.70
2023-01-30T00:48:27.617Z,79.50
2023-01-30T00:50:54.366Z,79.40
2023-01-30T00:53:21.087Z,79.30
2023-01-30T00:55:47.844Z,79.40
2023-01-30T00:58:14.618Z,79.30
2023-01-30T01:00:41.435Z,79.40
2023-01-30T01:03:08.247Z,79.30
2023-01-30T01:05:34.847Z,79.40
2023-01-30T01:08:01.503Z,79.40
2023-01-30T01:10:28.317Z,79.40
2023-01-30T01:12:57.368Z,79.40
2023-01-30T01:15:24.548Z,79.40
2023-01-30T01:17:53.858Z,79.40
2023-01-30T01:20:21.168Z,79.60
2023-01-30T01:22:52.662Z,79.40
2023-01-30T01:25:19.656Z,79.40
2023-01-30T01:27:46.883Z,79.50
2023-01-30T01:30:16.731Z,79.50
2023-01-30T01:32:43.371Z,79.40
2023-01-30T01:35:10.384Z,79.40
2023-01-30T01:37:50.693Z,79.60
2023-01-30T01:40:41.905Z,79.60
2023-01-30T01:43:17.644Z,79.50
2023-01-30T01:45:45.223Z,79.60
2023-01-30T01:48:27.741Z,79.50
2023-01-30T01:50:59.258Z,79.70
2023-01-30T01:53:32.070Z,79.60
2023-01-30T01:56:05.428Z,79.70
2023-01-30T01:58:35.486Z,79.70
2023-01-30T02:01:02.285Z,79.70
2023-01-30T02:03:30.537Z,79.70
2023-01-30T02:05:58.484Z,79.80
2023-01-30T02:08:27.546Z,79.80
2023-01-30T02:10:58.591Z,79.60
2023-01-30T02:13:25.783Z,79.80
2023-01-30T02:15:52.652Z,79.80
2023-01-30T02:18:19.531Z,79.80
2023-01-30T02:21:04.890Z,79.80
2023-01-30T02:23:43.669Z,79.80
2023-01-30T02:26:36.752Z,79.70
2023-01-30T02:29:06.377Z,79.70
2023-01-30T02:31:51.993Z,79.70
2023-01-30T02:34:37.259Z,79.70
2023-01-30T02:37:09.940Z,79.70
2023-01-30T02:39:36.515Z,79.60
2023-01-30T02:42:09.644Z,79.50
2023-01-30T02:44:38.971Z,79.50
2023-01-30T02:47:28.968Z,79.40
2023-01-30T02:50:01.165Z,79.30
2023-01-30T02:52:31.092Z,79.60
2023-01-30T02:54:57.781Z,79.90
2023-01-30T02:57:25.011Z,79.80
2023-01-30T02:59:54.988Z,79.70
2023-01-30T03:02:33.434Z,80.10
2023-01-30T03:05:21.037Z,79.80
2023-01-30T03:07:55.234Z,80.10
2023-01-30T03:10:37.138Z,80.00
2023-01-30T03:13:12.893Z,80.00
2023-01-30T03:15:46.382Z,79.90
2023-01-30T03:18:15.637Z,81.90
2023-01-30T03:20:42.401Z,83.10
2023-01-30T03:23:09.314Z,83.10
2023-01-30T03:25:37.121Z,82.90
2023-01-30T03:28:04.649Z,82.60
2023-01-30T03:30:34.161Z,82.10
2023-01-30T03:33:01.799Z,82.20
2023-01-30T03:35:29.437Z,81.80
2023-01-30T03:37:56.241Z,81.50
2023-01-30T03:40:22.866Z,81.40
2023-01-30T03:42:49.509Z,81.40
2023-01-30T03:45:16.468Z,82.00
2023-01-30T03:47:43.353Z,81.70
2023-01-30T03:50:10.443Z,81.40
2023-01-30T03:52:37.076Z,81.30
2023-01-30T03:55:06.450Z,81.10
2023-01-30T03:57:33.174Z,81.00
2023-01-30T03:59:59.971Z,81.10
2023-01-30T04:02:26.666Z,80.80
2023-01-30T04:04:53.472Z,80.60
2023-01-30T04:07:20.169Z,80.50
2023-01-30T04:09:46.849Z,80.40
2023-01-30T04:12:13.649Z,80.30
2023-01-30T04:14:46.167Z,80.10
2023-01-30T04:17:15.590Z,80.20
2023-01-30T04:19:50.924Z,80.10
2023-01-30T04:22:20.107Z,80.10
2023-01-30T04:24:46.718Z,80.00
2023-01-30T04:27:18.910Z,80.10
2023-01-30T04:29:45.728Z,80.00
2023-01-30T04:32:12.309Z,80.10
2023-01-30T04:34:38.922Z,79.80
2023-01-30T04:37:05.824Z,79.80
2023-01-30T04:39:32.349Z,79.80
2023-01-30T04:42:01.796Z,79.90
2023-01-30T04:44:28.367Z,79.70
2023-01-30T04:46:55.126Z,79.80
2023-01-30T04:49:21.833Z,79.80
2023-01-30T04:51:51.673Z,79.70
2023-01-30T04:54:18.463Z,79.70
2023-01-30T04:56:45.250Z,79.70
2023-01-30T04:59:11.862Z,79.60
2023-01-30T05:01:41.946Z,79.60
2023-01-30T05:04:11.497Z,79.50
2023-01-30T05:06:38.154Z,79.40
2023-01-30T05:09:07.963Z,79.40
2023-01-30T05:11:34.946Z,79.40
2023-01-30T05:14:02.202Z,79.40
2023-01-30T05:16:29.448Z,79.30
2023-01-30T05:18:56.123Z,79.30
2023-01-30T05:21:27.600Z,79.30
2023-01-30T05:23:54.627Z,79.30
2023-01-30T05:26:24.644Z,79.10
2023-01-30T05:28:52.800Z,79.10
2023-01-30T05:31:22.398Z,79.10
2023-01-30T05:33:49.747Z,79.10
2023-01-30T05:36:20.665Z,79.10
2023-01-30T05:38:47.383Z,79.10
2023-01-30T05:41:15.274Z,79.10
2023-01-30T05:43:48.382Z,79.10
2023-01-30T05:46:18.263Z,79.10
2023-01-30T05:48:45.023Z,79.10
2023-01-30T05:51:16.639Z,79.20
2023-01-30T05:53:43.223Z,79.30
2023-01-30T05:56:10.269Z,79.20
2023-01-30T05:58:37.105Z,79.20
2023-01-30T06:01:05.025Z,79.10
2023-01-30T06:03:31.965Z,79.20
2023-01-30T06:05:58.688Z,79.10
2023-01-30T06:08:25.499Z,79.30
2023-01-30T06:10:52.152Z,79.20
2023-01-30T06:13:18.917Z,79.40
2023-01-30T06:15:45.787Z,79.40
2023-01-30T06:18:12.500Z,79.50
2023-01-30T06:20:39.112Z,79.50
2023-01-30T06:23:05.783Z,79.50
2023-01-30T06:25:32.426Z,79.60
2023-01-30T06:27:59.116Z,79.60
2023-01-30T06:30:31.454Z,79.60
2023-01-30T06:32:58.105Z,79.60
2023-01-30T06:35:24.860Z,79.70
2023-01-30T06:37:54.539Z,79.60
2023-01-30T06:40:24.323Z,79.70
2023-01-30T06:45:31.720Z,79.70
2023-01-30T06:48:01.001Z,79.60
2023-01-30T06:50:30.493Z,79.60
2023-01-30T06:52:57.318Z,79.40
2023-01-30T06:55:27.415Z,79.40
2023-01-30T06:58:04.820Z,79.40
2023-01-30T07:00:31.679Z,79.30
2023-01-30T07:02:58.610Z,79.40
2023-01-30T07:05:31.824Z,79.40
2023-01-30T07:07:58.514Z,79.50
2023-01-30T07:10:27.334Z,79.40
2023-01-30T07:12:56.532Z,79.50
2023-01-30T07:15:23.072Z,79.30
2023-01-30T07:17:51.553Z,79.40
2023-01-30T07:20:18.166Z,79.20
2023-01-30T07:22:54.523Z,79.30
2023-01-30T07:25:22.251Z,79.30
2023-01-30T07:28:11.148Z,79.20
2023-01-30T07:30:38.111Z,79.30
2023-01-30T07:33:06.167Z,79.10
2023-01-30T07:35:38.947Z,79.20
2023-01-30T07:38:08.178Z,80.10
2023-01-30T07:40:34.969Z,80.50
2023-01-30T07:43:03.253Z,80.70
2023-01-30T07:45:35.844Z,80.80
2023-01-30T07:48:02.631Z,80.60
2023-01-30T07:50:29.330Z,80.20
2023-01-30T07:52:58.888Z,80.40
2023-01-30T07:55:25.491Z,80.70
2023-01-30T07:57:52.163Z,80.60
2023-01-30T08:00:22.053Z,80.60
2023-01-30T08:02:48.693Z,80.50
2023-01-30T08:05:18.089Z,80.60
2023-01-30T08:07:44.724Z,80.40
2023-01-30T08:10:12.171Z,80.40
2023-01-30T08:12:39.632Z,80.30
2023-01-30T08:15:06.719Z,80.20
2023-01-30T08:17:34.064Z,80.10
2023-01-30T08:20:02.744Z,80.00
2023-01-30T08:22:29.340Z,80.10
2023-01-30T08:24:55.926Z,79.90
2023-01-30T08:27:22.545Z,79.90
2023-01-30T08:29:51.233Z,80.00
2023-01-30T08:32:17.911Z,79.90
2023-01-30T08:34:44.486Z,79.90
2023-01-30T08:37:11.134Z,79.90
2023-01-30T08:39:37.753Z,79.90
2023-01-30T08:42:09.731Z,79.80
2023-01-30T08:44:36.380Z,79.90
2023-01-30T08:47:03.218Z,79.80
2023-01-30T08:49:29.915Z,79.70
2023-01-30T08:51:56.600Z,79.80
2023-01-30T08:54:23.250Z,79.70
2023-01-30T08:56:55.880Z,79.80
2023-01-30T08:59:22.555Z,79.80
2023-01-30T09:01:49.186Z,79.70
2023-01-30T09:04:16.000Z,79.80
2023-01-30T09:06:45.515Z,79.60
2023-01-30T09:09:12.167Z,79.60
2023-01-30T09:11:38.830Z,79.60
2023-01-30T09:14:08.150Z,79.60
2023-01-30T09:16:34.798Z,79.60
2023-01-30T09:19:01.477Z,79.40
2023-01-30T09:21:28.581Z,79.60
2023-01-30T09:23:55.928Z,79.40
2023-01-30T09:26:22.639Z,79.50
2023-01-30T09:28:54.337Z,79.60
2023-01-30T09:31:21.138Z,79.50
2023-01-30T09:33:50.764Z,79.40
2023-01-30T09:36:19.864Z,79.40
2023-01-30T09:38:46.560Z,79.60
2023-01-30T09:41:13.349Z,79.40
2023-01-30T09:43:53.758Z,79.30
2023-01-30T09:46:46.374Z,79.30
2023-01-30T09:49:28.089Z,79.30
2023-01-30T09:52:13.035Z,79.30
2023-01-30T09:54:43.540Z,80.10
2023-01-30T09:57:21.407Z,80.50
2023-01-30T09:59:54.275Z,80.60
2023-01-30T10:02:44.192Z,80.90
2023-01-30T10:05:11.258Z,81.10
2023-01-30T10:07:38.032Z,81.00
2023-01-30T10:10:12.889Z,80.70
2023-01-30T10:13:10.589Z,80.60
2023-01-30T10:15:44.170Z,80.40
2023-01-30T10:18:29.462Z,80.30
2023-01-30T10:21:03.191Z,80.20
2023-01-30T10:23:36.507Z,80.20
2023-01-30T10:26:14.516Z,80.10
2023-01-30T10:28:47.619Z,80.10
2023-01-30T10:31:18.523Z,80.10
2023-01-30T10:33:59.085Z,80.20
2023-01-30T10:36:32.778Z,80.10
2023-01-30T10:39:01.002Z,80.00
2023-01-30T10:41:34.754Z,80.00
2023-01-30T10:44:04.367Z,80.00
2023-01-30T10:46:50.278Z,80.10
2023-01-30T10:49:23.051Z,80.10
2023-01-30T10:51:55.966Z,80.00
2023-01-30T10:54:35.618Z,80.10
2023-01-30T10:57:03.222Z,80.10
2023-01-30T10:59:44.665Z,80.00
2023-01-30T11:02:28.986Z,80.10
2023-01-30T11:04:59.473Z,80.10
2023-01-30T11:07:29.954Z,80.00
2023-01-30T11:10:00.137Z,80.00
2023-01-30T11:12:27.028Z,80.00
2023-01-30T11:14:56.463Z,80.00
2023-01-30T11:17:29.313Z,80.00
2023-01-30T11:19:56.814Z,80.00
2023-01-30T11:22:25.948Z,80.00
2023-01-30T11:25:03.594Z,80.00
2023-01-30T11:27:34.406Z,80.00
2023-01-30T11:30:14.104Z,80.10
2023-01-30T11:32:42.728Z,80.00
2023-01-30T11:35:09.839Z,80.00
2023-01-30T11:37:37.601Z,79.90
2023-01-30T11:40:23.811Z,80.10
2023-01-30T11:43:06.236Z,80.00
2023-01-30T11:45:47.568Z,79.90
2023-01-30T11:48:33.362Z,80.00
2023-01-30T11:51:12.790Z,80.00
2023-01-30T11:53:42.044Z,80.00
2023-01-30T11:56:14.736Z,80.00
2023-01-30T11:58:43.552Z,80.00
2023-01-30T12:01:11.183Z,80.00
2023-01-30T12:03:43.950Z,79.90
2023-01-30T12:06:10.682Z,80.00
2023-01-30T12:08:42.332Z,80.00
2023-01-30T12:11:26.747Z,80.00
2023-01-30T12:14:11.973Z,80.00
2023-01-30T12:17:00.656Z,80.00
2023-01-30T12:19:43.198Z,80.00
2023-01-30T12:22:19.597Z,80.10
2023-01-30T12:24:56.608Z,80.10
2023-01-30T12:27:29.235Z,80.00
2023-01-30T12:30:00.064Z,80.10
2023-01-30T12:32:28.804Z,80.00
2023-01-30T12:34:58.027Z,80.00
2023-01-30T12:37:26.223Z,80.00
2023-01-30T12:39:53.945Z,80.00
2023-01-30T12:42:23.659Z,80.00
2023-01-30T12:44:58.177Z,80.00
2023-01-30T12:47:43.689Z,80.00
2023-01-30T12:50:45.954Z,80.00
2023-01-30T12:53:19.705Z,80.00
2023-01-30T12:56:08.053Z,79.90
2023-01-30T12:58:34.701Z,80.00
2023-01-30T13:01:14.811Z,80.10
2023-01-30T13:04:04.600Z,80.10
2023-01-30T13:06:40.505Z,80.30
2023-01-30T13:09:14.916Z,80.30
2023-01-30T13:11:59.327Z,80.30
2023-01-30T13:14:26.015Z,80.30
2023-01-30T13:17:05.178Z,80.40
2023-01-30T13:19:46.347Z,80.30
2023-01-30T13:22:20.923Z,80.30
2023-01-30T13:25:11.562Z,80.70
2023-01-30T13:27:40.359Z,80.60
2023-01-30T13:30:10.437Z,80.60
2023-01-30T13:32:41.524Z,80.40
2023-01-30T13:35:20.854Z,80.50
2023-01-30T13:37:53.280Z,80.30
2023-01-30T13:40:23.066Z,80.30
2023-01-30T13:42:50.050Z,80.80
2023-01-30T13:45:18.161Z,82.20
2023-01-30T13:47:46.861Z,82.50
2023-01-30T13:50:25.427Z,82.90
2023-01-30T13:52:52.080Z,83.50
2023-01-30T13:55:37.591Z,83.70
2023-01-30T13:58:24.552Z,84.30
2023-01-30T14:00:55.212Z,84.60
2023-01-30T14:03:26.129Z,84.70
2023-01-30T14:06:03.105Z,82.90
2023-01-30T14:08:31.789Z,82.20
2023-01-30T14:11:01.464Z,81.70
2023-01-30T14:13:29.727Z,81.60
2023-01-30T14:16:01.662Z,81.70
2023-01-30T14:18:31.439Z,81.80
2023-01-30T14:21:14.873Z,81.80
2023-01-30T14:23:54.900Z,81.60
2023-01-30T14:27:00.134Z,81.70
2023-01-30T14:29:38.613Z,81.40
2023-01-30T14:32:21.970Z,81.40
2023-01-30T14:34:50.174Z,81.40
2023-01-30T14:37:30.182Z,81.30
2023-01-30T14:40:00.586Z,81.30
2023-01-30T14:42:31.161Z,81.30
2023-01-30T14:45:04.032Z,81.50
2023-01-30T14:47:44.489Z,81.70
2023-01-30T14:50:23.577Z,81.40
2023-01-30T14:52:55.705Z,81.30
2023-01-30T14:55:24.303Z,81.20
2023-01-30T14:57:54.845Z,81.20
2023-01-30T15:00:24.680Z,81.20
2023-01-30T15:02:54.297Z,81.20
2023-01-30T15:05:29.742Z,81.20
2023-01-30T15:08:04.908Z,81.70
2023-01-30T15:10:39.111Z,81.40
2023-01-30T15:13:24.786Z,81.30
2023-01-30T15:15:52.540Z,81.20
2023-01-30T15:18:28.524Z,81.20
2023-01-30T15:21:16.299Z,81.20
2023-01-30T15:23:42.901Z,81.30
2023-01-30T15:26:09.527Z,81.20
2023-01-30T15:28:55.048Z,81.20
2023-01-30T15:31:24.934Z,81.20
2023-01-30T15:33:52.948Z,81.20
2023-01-30T15:36:26.024Z,81.20
2023-01-30T15:38:56.269Z,81.40
2023-01-30T15:41:23.154Z,81.60
2023-01-30T15:44:05.920Z,81.40
2023-01-30T15:46:38.325Z,81.60
2023-01-30T15:49:25.256Z,81.80
2023-01-30T15:51:52.496Z,82.00
2023-01-30T15:54:21.588Z,81.70
2023-01-30T15:56:49.769Z,81.60
2023-01-30T15:59:36.271Z,81.60
2023-01-30T16:02:04.835Z,81.40
2023-01-30T16:04:32.013Z,81.30
2023-01-30T16:06:58.766Z,81.30
2023-01-30T16:09:26.023Z,81.40
2023-01-30T16:11:56.150Z,81.50
2023-01-30T16:14:22.793Z,81.30
2023-01-30T16:16:54.983Z,81.70
2023-01-30T16:19:32.079Z,81.40
2023-01-30T16:22:07.016Z,81.50
2023-01-30T16:24:35.341Z,81.50
2023-01-30T16:27:03.391Z,81.60
2023-01-30T16:29:31.612Z,81.50
2023-01-30T16:31:58.517Z,81.50
2023-01-30T16:34:30.020Z,81.40
2023-01-30T16:37:02.597Z,81.30
2023-01-30T16:39:30.684Z,81.50
2023-01-30T16:42:05.345Z,81.60
2023-01-30T16:44:32.191Z,81.40
2023-01-30T16:47:04.191Z,81.60
2023-01-30T16:49:37.008Z,81.90
2023-01-30T16:52:24.187Z,81.70
2023-01-30T16:54:50.811Z,81.50
2023-01-30T16:57:40.135Z,81.60
2023-01-30T17:00:09.721Z,81.50
2023-01-30T17:02:37.662Z,81.40
2023-01-30T17:05:16.484Z,81.40
2023-01-30T17:07:45.299Z,81.80
2023-01-30T17:10:32.190Z,81.70
2023-01-30T17:12:59.021Z,81.60
2023-01-30T17:15:26.480Z,81.40
2023-01-30T17:17:56.036Z,81.30
2023-01-30T17:20:22.942Z,81.30
2023-01-30T17:22:52.409Z,81.30
2023-01-30T17:25:35.744Z,81.20
2023-01-30T17:28:02.485Z,81.20
2023-01-30T17:30:29.249Z,81.30
2023-01-30T17:32:58.419Z,81.20
2023-01-30T17:35:25.094Z,81.20
2023-01-30T17:38:04.737Z,81.20
2023-01-30T17:40:33.968Z,81.20
2023-01-30T17:45:44.540Z,81.40
2023-01-30T17:48:12.578Z,81.30
2023-01-30T17:50:39.521Z,81.30
2023-01-30T17:53:06.336Z,81.40
2023-01-30T17:55:34.255Z,81.50
2023-01-30T17:58:02.548Z,81.60
2023-01-30T18:00:29.317Z,81.30
2023-01-30T18:02:56.043Z,81.30
2023-01-30T18:05:23.042Z,81.20
2023-01-30T18:07:49.716Z,81.20
2023-01-30T18:10:18.335Z,81.20
2023-01-30T18:12:47.887Z,81.20
2023-01-30T18:15:15.783Z,81.20
2023-01-30T18:17:46.061Z,81.20
2023-01-30T18:20:14.614Z,81.20
2023-01-30T18:22:41.370Z,81.20
2023-01-30T18:25:13.436Z,81.40
2023-01-30T18:27:41.250Z,81.30
2023-01-30T18:30:08.171Z,81.40
2023-01-30T18:32:37.671Z,81.40
2023-01-30T18:35:04.730Z,81.40
2023-01-30T18:37:31.548Z,81.40
2023-01-30T18:40:07.951Z,81.30
2023-01-30T18:42:34.704Z,81.40
2023-01-30T18:45:04.007Z,81.40
2023-01-30T18:47:33.819Z,81.30
2023-01-30T18:50:00.530Z,81.40
2023-01-30T18:52:27.202Z,81.40
2023-01-30T18:54:54.140Z,81.40
2023-01-30T18:57:24.051Z,81.50
2023-01-30T18:59:50.715Z,81.50
2023-01-30T19:02:17.511Z,81.40
2023-01-30T19:04:47.017Z,81.40
2023-01-30T19:07:13.669Z,81.50
2023-01-30T19:09:40.279Z,81.40
2023-01-30T19:12:25.429Z,81.40
2023-01-30T19:14:52.097Z,81.50
2023-01-30T19:17:28.731Z,81.70
2023-01-30T19:19:57.312Z,81.50
2023-01-30T19:22:24.008Z,81.50
2023-01-30T19:24:53.488Z,81.60
2023-01-30T19:27:20.248Z,81.50
2023-01-30T19:29:47.008Z,81.60
2023-01-30T19:32:13.623Z,81.60
2023-01-30T19:34:42.076Z,81.50
2023-01-30T19:37:08.897Z,81.60
2023-01-30T19:39:35.517Z,81.60
2023-01-30T19:42:02.337Z,81.60
2023-01-30T19:44:29.038Z,81.50
2023-01-30T19:46:58.752Z,81.60
2023-01-30T19:49:28.324Z,81.70
2023-01-30T19:51:56.815Z,81.70
2023-01-30T19:54:23.405Z,81.60
2023-01-30T19:56:55.916Z,81.70
2023-01-30T19:59:26.704Z,81.60
2023-01-30T20:01:53.365Z,81.60
2023-01-30T20:04:19.986Z,81.60
2023-01-30T20:06:46.811Z,81.60
2023-01-30T20:09:13.587Z,81.70
2023-01-30T20:11:45.906Z,81.60
2023-01-30T20:14:12.597Z,81.60
2023-01-30T20:16:39.610Z,81.60
2023-01-30T20:19:12.067Z,81.90
2023-01-30T20:21:44.713Z,82.10
2023-01-30T20:24:14.994Z,81.90
2023-01-30T20:26:42.254Z,82.40
2023-01-30T20:29:09.999Z,82.00
2023-01-30T20:31:41.366Z,81.80
2023-01-30T20:34:10.138Z,81.70
2023-01-30T20:36:36.767Z,81.60
2023-01-30T20:39:09.496Z,81.60
2023-01-30T20:41:37.578Z,81.60
2023-01-30T20:44:06.040Z,81.40
2023-01-30T20:46:43.334Z,81.40
2023-01-30T20:49:18.547Z,81.40
2023-01-30T20:51:45.957Z,81.60
2023-01-30T20:54:13.716Z,81.40
2023-01-30T20:56:43.034Z,81.70
2023-01-30T20:59:12.673Z,81.60
2023-01-30T21:01:42.316Z,81.60
2023-01-30T21:04:11.036Z,81.40
2023-01-30T21:06:44.219Z,81.30
2023-01-30T21:09:18.581Z,81.30
2023-01-30T21:11:45.729Z,81.30
2023-01-30T21:14:30.130Z,81.30
2023-01-30T21:16:57.299Z,81.30
2023-01-30T21:19:24.007Z,81.40
2023-01-30T21:21:53.328Z,81.40
2023-01-30T21:24:28.792Z,81.60
2023-01-30T21:26:58.316Z,81.40
2023-01-30T21:29:26.287Z,81.20
2023-01-30T21:31:54.684Z,81.50
2023-01-30T21:34:21.664Z,81.70
2023-01-30T21:37:08.453Z,81.70
2023-01-30T21:39:54.001Z,81.70
2023-01-30T21:42:42.303Z,81.80
2023-01-30T21:45:09.180Z,81.90
2023-01-30T21:47:38.925Z,81.70
2023-01-30T21:50:05.972Z,81.80
2023-01-30T21:52:35.842Z,81.90
2023-01-30T21:55:02.564Z,81.90
2023-01-30T21:57:29.214Z,82.70
2023-01-30T21:59:55.791Z,83.00
2023-01-30T22:02:22.449Z,82.50
2023-01-30T22:04:49.114Z,82.20
2023-01-30T22:07:15.918Z,82.20
2023-01-30T22:09:42.622Z,81.90
2023-01-30T22:12:10.703Z,81.80
2023-01-30T22:14:37.519Z,81.80
2023-01-30T22:17:04.200Z,81.80
2023-01-30T22:19:35.229Z,81.70
2023-01-30T22:22:05.409Z,81.80
2023-01-30T22:24:32.143Z,82.30
2023-01-30T22:26:58.826Z,82.20
2023-01-30T22:29:25.525Z,82.60
2023-01-30T22:31:52.368Z,82.70
2023-01-30T22:34:19.062Z,82.70
2023-01-30T22:36:48.239Z,82.40
2023-01-30T22:39:14.870Z,82.20
2023-01-30T22:41:41.622Z,82.00
2023-01-30T22:44:09.256Z,81.90
2023-01-30T22:46:37.678Z,81.80
2023-01-30T22:49:05.997Z,82.00
2023-01-30T22:51:35.826Z,81.80
2023-01-30T22:54:04.192Z,81.80
2023-01-30T22:56:34.131Z,81.80
2023-01-30T22:59:00.800Z,81.80
2023-01-30T23:01:28.972Z,81.80
2023-01-30T23:04:03.033Z,81.80
2023-01-30T23:06:31.361Z,81.80
2023-01-30T23:08:58.776Z,81.90
2023-01-30T23:11:28.088Z,81.90
2023-01-30T23:13:59.556Z,81.90
2023-01-30T23:16:27.607Z,81.80
2023-01-30T23:19:00.196Z,81.80
2023-01-30T23:21:29.923Z,81.80
2023-01-30T23:23:58.925Z,81.80
2023-01-30T23:26:26.483Z,81.80
2023-01-30T23:28:53.099Z,81.80
2023-01-30T23:31:26.841Z,81.80
2023-01-30T23:34:05.351Z,81.80
2023-01-30T23:36:35.333Z,82.00
2023-01-30T23:39:02.033Z,81.80
2023-01-30T23:41:30.121Z,81.80
2023-01-30T23:43:57.623Z,81.80
2023-01-30T23:46:27.914Z,81.70
2023-01-30T23:48:55.771Z,81.80
2023-01-30T23:51:23.957Z,81.80
2023-01-30T23:53:51.646Z,81.90
2023-01-30T23:56:18.955Z,81.80
2023-01-30T23:58:53.022Z,81.80
